sensor_id;sensor_type;location;lat;lon;timestamp;P1;durP1;ratioP1;P2;durP2;ratioP2
79338;SDS011;68809;41.712;44.768;2023-05-10T00:00:22;5.85;;;2.45;;
79338;SDS011;68809;41.712;44.768;2023-05-10T00:02:49;5.47;;;2.50;;
79338;SDS011;68809;41.712;44.768;2023-05-10T00:05:15;3.97;;;2.40;;
79338;SDS011;68809;41.712;44.768;2023-05-10T00:07:41;7.20;;;3.40;;
79338;SDS011;68809;41.712;44.768;2023-05-10T00:10:10;6.25;;;2.72;;
79338;SDS011;68809;41.712;44.768;2023-05-10T00:12:36;6.05;;;2.70;;
79338;SDS011;68809;41.712;44.768;2023-05-10T00:15:03;5.00;;;2.50;;
79338;SDS011;68809;41.712;44.768;2023-05-10T00:17:33;6.97;;;3.10;;
79338;SDS011;68809;41.712;44.768;2023-05-10T00:19:59;5.95;;;2.70;;
79338;SDS011;68809;41.712;44.768;2023-05-10T00:22:25;5.32;;;2.70;;
79338;SDS011;68809;41.712;44.768;2023-05-10T00:24:52;5.20;;;2.58;;
79338;SDS011;68809;41.712;44.768;2023-05-10T00:27:18;5.57;;;2.60;;
79338;SDS011;68809;41.712;44.768;2023-05-10T00:29:45;6.07;;;2.70;;
79338;SDS011;68809;41.712;44.768;2023-05-10T00:32:11;5.70;;;2.50;;
79338;SDS011;68809;41.712;44.768;2023-05-10T00:34:39;5.43;;;2.65;;
79338;SDS011;68809;41.712;44.768;2023-05-10T00:37:05;6.55;;;2.70;;
79338;SDS011;68809;41.712;44.768;2023-05-10T00:39:32;6.27;;;3.43;;
79338;SDS011;68809;41.712;44.768;2023-05-10T00:41:58;6.80;;;3.10;;
79338;SDS011;68809;41.712;44.768;2023-05-10T00:44:26;5.53;;;2.63;;
79338;SDS011;68809;41.712;44.768;2023-05-10T00:46:53;5.35;;;2.60;;
79338;SDS011;68809;41.712;44.768;2023-05-10T00:49:19;4.90;;;2.60;;
79338;SDS011;68809;41.712;44.768;2023-05-10T00:51:46;4.20;;;2.30;;
79338;SDS011;68809;41.712;44.768;2023-05-10T00:54:13;4.88;;;2.30;;
79338;SDS011;68809;41.712;44.768;2023-05-10T00:56:40;5.38;;;2.83;;
79338;SDS011;68809;41.712;44.768;2023-05-10T00:59:08;4.90;;;2.70;;
79338;SDS011;68809;41.712;44.768;2023-05-10T01:01:34;6.35;;;2.97;;
79338;SDS011;68809;41.712;44.768;2023-05-10T01:04:01;5.10;;;2.73;;
79338;SDS011;68809;41.712;44.768;2023-05-10T01:06:28;4.70;;;2.35;;
79338;SDS011;68809;41.712;44.768;2023-05-10T01:08:55;5.25;;;2.70;;
79338;SDS011;68809;41.712;44.768;2023-05-10T01:11:22;5.10;;;2.78;;
79338;SDS011;68809;41.712;44.768;2023-05-10T01:13:50;4.50;;;2.70;;
79338;SDS011;68809;41.712;44.768;2023-05-10T01:16:20;4.63;;;2.50;;
79338;SDS011;68809;41.712;44.768;2023-05-10T01:18:47;6.30;;;2.72;;
79338;SDS011;68809;41.712;44.768;2023-05-10T01:33:04;5.53;;;2.60;;
79338;SDS011;68809;41.712;44.768;2023-05-10T01:35:51;4.30;;;2.50;;
79338;SDS011;68809;41.712;44.768;2023-05-10T01:38:44;5.03;;;2.78;;
79338;SDS011;68809;41.712;44.768;2023-05-10T01:44:09;7.03;;;2.60;;
79338;SDS011;68809;41.712;44.768;2023-05-10T01:46:37;5.03;;;2.88;;
79338;SDS011;68809;41.712;44.768;2023-05-10T01:49:08;5.00;;;2.60;;
79338;SDS011;68809;41.712;44.768;2023-05-10T01:51:41;4.63;;;2.60;;
79338;SDS011;68809;41.712;44.768;2023-05-10T01:54:12;5.15;;;3.00;;
79338;SDS011;68809;41.712;44.768;2023-05-10T01:56:39;5.17;;;2.70;;
79338;SDS011;68809;41.712;44.768;2023-05-10T01:59:08;6.18;;;2.70;;
79338;SDS011;68809;41.712;44.768;2023-05-10T02:01:41;6.13;;;2.78;;
79338;SDS011;68809;41.712;44.768;2023-05-10T02:04:07;6.47;;;2.80;;
79338;SDS011;68809;41.712;44.768;2023-05-10T02:06:34;6.97;;;2.90;;
79338;SDS011;68809;41.712;44.768;2023-05-10T02:09:01;5.03;;;2.70;;
79338;SDS011;68809;41.712;44.768;2023-05-10T02:11:29;4.82;;;2.72;;
79338;SDS011;68809;41.712;44.768;2023-05-10T02:13:57;6.25;;;2.85;;
79338;SDS011;68809;41.712;44.768;2023-05-10T02:16:29;5.25;;;2.83;;
79338;SDS011;68809;41.712;44.768;2023-05-10T02:18:56;5.47;;;2.80;;
79338;SDS011;68809;41.712;44.768;2023-05-10T02:21:25;6.23;;;2.80;;
79338;SDS011;68809;41.712;44.768;2023-05-10T02:23:51;4.78;;;2.70;;
79338;SDS011;68809;41.712;44.768;2023-05-10T02:26:18;5.75;;;3.22;;
79338;SDS011;68809;41.712;44.768;2023-05-10T02:28:45;5.03;;;2.72;;
79338;SDS011;68809;41.712;44.768;2023-05-10T02:31:12;4.80;;;3.00;;
79338;SDS011;68809;41.712;44.768;2023-05-10T02:33:38;7.40;;;2.90;;
79338;SDS011;68809;41.712;44.768;2023-05-10T02:36:06;7.38;;;3.10;;
79338;SDS011;68809;41.712;44.768;2023-05-10T02:38:33;4.90;;;3.25;;
79338;SDS011;68809;41.712;44.768;2023-05-10T02:41:01;8.98;;;5.80;;
79338;SDS011;68809;41.712;44.768;2023-05-10T02:43:27;5.78;;;4.53;;
79338;SDS011;68809;41.712;44.768;2023-05-10T02:45:55;5.40;;;4.20;;
79338;SDS011;68809;41.712;44.768;2023-05-10T02:48:21;7.40;;;5.45;;
79338;SDS011;68809;41.712;44.768;2023-05-10T02:50:48;5.65;;;4.20;;
79338;SDS011;68809;41.712;44.768;2023-05-10T02:53:18;5.22;;;4.00;;
79338;SDS011;68809;41.712;44.768;2023-05-10T02:55:49;6.05;;;3.35;;
79338;SDS011;68809;41.712;44.768;2023-05-10T02:58:18;4.70;;;2.70;;
79338;SDS011;68809;41.712;44.768;2023-05-10T03:00:46;5.30;;;3.40;;
79338;SDS011;68809;41.712;44.768;2023-05-10T03:03:13;7.93;;;5.55;;
79338;SDS011;68809;41.712;44.768;2023-05-10T03:05:39;6.70;;;5.97;;
79338;SDS011;68809;41.712;44.768;2023-05-10T03:08:05;8.93;;;6.30;;
79338;SDS011;68809;41.712;44.768;2023-05-10T03:10:32;6.80;;;6.10;;
79338;SDS011;68809;41.712;44.768;2023-05-10T03:13:09;6.95;;;6.35;;
79338;SDS011;68809;41.712;44.768;2023-05-10T03:18:31;7.05;;;6.38;;
79338;SDS011;68809;41.712;44.768;2023-05-10T03:21:05;8.98;;;7.35;;
79338;SDS011;68809;41.712;44.768;2023-05-10T03:23:35;7.73;;;6.90;;
79338;SDS011;68809;41.712;44.768;2023-05-10T03:26:06;7.88;;;7.18;;
79338;SDS011;68809;41.712;44.768;2023-05-10T03:28:34;6.93;;;6.32;;
79338;SDS011;68809;41.712;44.768;2023-05-10T03:31:03;7.90;;;6.90;;
79338;SDS011;68809;41.712;44.768;2023-05-10T03:33:31;9.05;;;8.25;;
79338;SDS011;68809;41.712;44.768;2023-05-10T03:35:59;8.17;;;7.47;;
79338;SDS011;68809;41.712;44.768;2023-05-10T03:38:25;7.75;;;7.05;;
79338;SDS011;68809;41.712;44.768;2023-05-10T03:40:51;7.78;;;7.00;;
79338;SDS011;68809;41.712;44.768;2023-05-10T03:43:18;7.13;;;6.43;;
79338;SDS011;68809;41.712;44.768;2023-05-10T03:45:44;7.55;;;6.85;;
79338;SDS011;68809;41.712;44.768;2023-05-10T03:48:10;9.80;;;6.63;;
79338;SDS011;68809;41.712;44.768;2023-05-10T03:50:40;6.50;;;5.80;;
79338;SDS011;68809;41.712;44.768;2023-05-10T03:53:06;7.72;;;5.65;;
79338;SDS011;68809;41.712;44.768;2023-05-10T03:55:32;6.60;;;4.50;;
79338;SDS011;68809;41.712;44.768;2023-05-10T03:58:02;6.88;;;4.00;;
79338;SDS011;68809;41.712;44.768;2023-05-10T04:00:28;5.87;;;3.90;;
79338;SDS011;68809;41.712;44.768;2023-05-10T04:02:55;6.40;;;3.30;;
79338;SDS011;68809;41.712;44.768;2023-05-10T04:05:22;5.63;;;3.33;;
79338;SDS011;68809;41.712;44.768;2023-05-10T04:07:51;5.40;;;3.50;;
79338;SDS011;68809;41.712;44.768;2023-05-10T04:10:17;5.25;;;3.28;;
79338;SDS011;68809;41.712;44.768;2023-05-10T04:12:45;4.90;;;2.83;;
79338;SDS011;68809;41.712;44.768;2023-05-10T04:15:11;4.88;;;2.70;;
79338;SDS011;68809;41.712;44.768;2023-05-10T04:17:37;4.78;;;2.90;;
79338;SDS011;68809;41.712;44.768;2023-05-10T04:20:04;5.50;;;2.95;;
79338;SDS011;68809;41.712;44.768;2023-05-10T04:22:31;6.25;;;3.10;;
79338;SDS011;68809;41.712;44.768;2023-05-10T04:24:57;7.00;;;2.80;;
79338;SDS011;68809;41.712;44.768;2023-05-10T04:27:23;6.55;;;2.80;;
79338;SDS011;68809;41.712;44.768;2023-05-10T04:29:50;5.50;;;2.88;;
79338;SDS011;68809;41.712;44.768;2023-05-10T04:32:16;5.28;;;3.22;;
79338;SDS011;68809;41.712;44.768;2023-05-10T04:34:43;6.65;;;3.13;;
79338;SDS011;68809;41.712;44.768;2023-05-10T04:37:09;6.90;;;3.20;;
79338;SDS011;68809;41.712;44.768;2023-05-10T04:39:35;7.88;;;3.03;;
79338;SDS011;68809;41.712;44.768;2023-05-10T04:42:02;5.47;;;2.90;;
79338;SDS011;68809;41.712;44.768;2023-05-10T04:44:31;6.90;;;2.80;;
79338;SDS011;68809;41.712;44.768;2023-05-10T04:46:58;5.05;;;2.83;;
79338;SDS011;68809;41.712;44.768;2023-05-10T04:49:24;5.47;;;2.90;;
79338;SDS011;68809;41.712;44.768;2023-05-10T04:51:51;5.78;;;3.13;;
79338;SDS011;68809;41.712;44.768;2023-05-10T04:54:17;5.53;;;2.80;;
79338;SDS011;68809;41.712;44.768;2023-05-10T04:56:44;5.25;;;2.85;;
79338;SDS011;68809;41.712;44.768;2023-05-10T04:59:10;5.85;;;2.90;;
79338;SDS011;68809;41.712;44.768;2023-05-10T05:01:36;6.17;;;3.00;;
79338;SDS011;68809;41.712;44.768;2023-05-10T05:04:03;6.65;;;3.10;;
79338;SDS011;68809;41.712;44.768;2023-05-10T05:06:29;6.38;;;3.10;;
79338;SDS011;68809;41.712;44.768;2023-05-10T05:08:55;5.78;;;2.97;;
79338;SDS011;68809;41.712;44.768;2023-05-10T05:11:21;5.78;;;3.13;;
79338;SDS011;68809;41.712;44.768;2023-05-10T05:13:47;6.30;;;2.93;;
79338;SDS011;68809;41.712;44.768;2023-05-10T05:16:14;5.55;;;2.88;;
79338;SDS011;68809;41.712;44.768;2023-05-10T05:18:40;6.05;;;2.83;;
79338;SDS011;68809;41.712;44.768;2023-05-10T05:21:13;5.03;;;2.75;;
79338;SDS011;68809;41.712;44.768;2023-05-10T05:23:40;7.05;;;3.15;;
79338;SDS011;68809;41.712;44.768;2023-05-10T05:26:07;6.50;;;2.90;;
79338;SDS011;68809;41.712;44.768;2023-05-10T05:28:33;7.38;;;3.00;;
79338;SDS011;68809;41.712;44.768;2023-05-10T05:31:03;7.85;;;2.90;;
79338;SDS011;68809;41.712;44.768;2023-05-10T05:33:31;5.80;;;3.00;;
79338;SDS011;68809;41.712;44.768;2023-05-10T05:35:59;5.75;;;2.80;;
79338;SDS011;68809;41.712;44.768;2023-05-10T05:38:26;5.53;;;2.80;;
79338;SDS011;68809;41.712;44.768;2023-05-10T05:40:52;8.25;;;3.28;;
79338;SDS011;68809;41.712;44.768;2023-05-10T05:43:18;5.47;;;3.17;;
79338;SDS011;68809;41.712;44.768;2023-05-10T05:45:44;6.20;;;3.10;;
79338;SDS011;68809;41.712;44.768;2023-05-10T05:48:11;5.45;;;2.97;;
79338;SDS011;68809;41.712;44.768;2023-05-10T05:50:37;5.40;;;3.00;;
79338;SDS011;68809;41.712;44.768;2023-05-10T05:53:03;5.25;;;2.70;;
79338;SDS011;68809;41.712;44.768;2023-05-10T05:55:29;5.07;;;2.70;;
79338;SDS011;68809;41.712;44.768;2023-05-10T05:57:57;5.95;;;2.47;;
79338;SDS011;68809;41.712;44.768;2023-05-10T06:00:24;4.70;;;2.25;;
79338;SDS011;68809;41.712;44.768;2023-05-10T06:02:50;5.60;;;2.30;;
79338;SDS011;68809;41.712;44.768;2023-05-10T06:05:16;5.20;;;2.50;;
79338;SDS011;68809;41.712;44.768;2023-05-10T06:07:42;4.95;;;2.60;;
79338;SDS011;68809;41.712;44.768;2023-05-10T06:10:09;4.38;;;2.53;;
79338;SDS011;68809;41.712;44.768;2023-05-10T06:12:35;5.35;;;2.63;;
79338;SDS011;68809;41.712;44.768;2023-05-10T06:15:02;6.30;;;3.20;;
79338;SDS011;68809;41.712;44.768;2023-05-10T06:17:33;6.43;;;2.53;;
79338;SDS011;68809;41.712;44.768;2023-05-10T06:19:59;4.50;;;2.50;;
79338;SDS011;68809;41.712;44.768;2023-05-10T06:22:25;4.55;;;2.42;;
79338;SDS011;68809;41.712;44.768;2023-05-10T06:24:51;4.93;;;2.40;;
79338;SDS011;68809;41.712;44.768;2023-05-10T06:27:17;6.03;;;2.63;;
79338;SDS011;68809;41.712;44.768;2023-05-10T06:29:44;5.45;;;2.90;;
79338;SDS011;68809;41.712;44.768;2023-05-10T06:32:10;5.78;;;2.95;;
79338;SDS011;68809;41.712;44.768;2023-05-10T06:34:36;8.60;;;2.95;;
79338;SDS011;68809;41.712;44.768;2023-05-10T06:37:02;6.32;;;3.00;;
79338;SDS011;68809;41.712;44.768;2023-05-10T06:39:29;7.10;;;2.90;;
79338;SDS011;68809;41.712;44.768;2023-05-10T06:41:55;4.85;;;2.90;;
79338;SDS011;68809;41.712;44.768;2023-05-10T06:44:21;6.72;;;2.90;;
79338;SDS011;68809;41.712;44.768;2023-05-10T06:46:47;5.47;;;2.78;;
79338;SDS011;68809;41.712;44.768;2023-05-10T06:49:14;4.78;;;3.00;;
79338;SDS011;68809;41.712;44.768;2023-05-10T06:51:40;6.57;;;3.27;;
79338;SDS011;68809;41.712;44.768;2023-05-10T06:54:06;7.05;;;3.20;;
79338;SDS011;68809;41.712;44.768;2023-05-10T06:56:32;7.45;;;3.13;;
79338;SDS011;68809;41.712;44.768;2023-05-10T06:58:58;5.28;;;3.00;;
79338;SDS011;68809;41.712;44.768;2023-05-10T07:01:25;6.18;;;2.80;;
79338;SDS011;68809;41.712;44.768;2023-05-10T07:03:51;5.73;;;2.80;;
79338;SDS011;68809;41.712;44.768;2023-05-10T07:06:17;5.85;;;3.10;;
79338;SDS011;68809;41.712;44.768;2023-05-10T07:08:44;7.53;;;3.40;;
79338;SDS011;68809;41.712;44.768;2023-05-10T07:11:10;7.25;;;3.28;;
79338;SDS011;68809;41.712;44.768;2023-05-10T07:13:36;6.68;;;3.15;;
79338;SDS011;68809;41.712;44.768;2023-05-10T07:16:04;5.47;;;3.30;;
79338;SDS011;68809;41.712;44.768;2023-05-10T07:18:31;7.30;;;3.55;;
79338;SDS011;68809;41.712;44.768;2023-05-10T07:20:58;6.13;;;3.00;;
79338;SDS011;68809;41.712;44.768;2023-05-10T07:23:24;6.18;;;3.35;;
79338;SDS011;68809;41.712;44.768;2023-05-10T07:25:50;6.88;;;3.60;;
79338;SDS011;68809;41.712;44.768;2023-05-10T07:28:18;5.27;;;3.07;;
79338;SDS011;68809;41.712;44.768;2023-05-10T07:30:44;5.68;;;3.30;;
79338;SDS011;68809;41.712;44.768;2023-05-10T07:33:11;6.03;;;3.40;;
79338;SDS011;68809;41.712;44.768;2023-05-10T07:35:39;6.88;;;3.13;;
79338;SDS011;68809;41.712;44.768;2023-05-10T07:38:05;6.85;;;3.25;;
79338;SDS011;68809;41.712;44.768;2023-05-10T07:40:31;6.37;;;3.20;;
79338;SDS011;68809;41.712;44.768;2023-05-10T07:42:57;5.40;;;3.20;;
79338;SDS011;68809;41.712;44.768;2023-05-10T07:45:24;7.25;;;3.50;;
79338;SDS011;68809;41.712;44.768;2023-05-10T07:47:50;7.50;;;3.47;;
79338;SDS011;68809;41.712;44.768;2023-05-10T07:50:16;6.65;;;3.60;;
79338;SDS011;68809;41.712;44.768;2023-05-10T07:52:42;8.77;;;3.57;;
79338;SDS011;68809;41.712;44.768;2023-05-10T07:55:09;8.23;;;3.75;;
79338;SDS011;68809;41.712;44.768;2023-05-10T07:57:35;6.43;;;3.50;;
79338;SDS011;68809;41.712;44.768;2023-05-10T08:00:02;7.68;;;3.65;;
79338;SDS011;68809;41.712;44.768;2023-05-10T08:02:40;7.88;;;3.55;;
79338;SDS011;68809;41.712;44.768;2023-05-10T08:05:06;5.67;;;3.33;;
79338;SDS011;68809;41.712;44.768;2023-05-10T08:07:33;7.40;;;3.72;;
79338;SDS011;68809;41.712;44.768;2023-05-10T08:10:00;8.25;;;4.05;;
79338;SDS011;68809;41.712;44.768;2023-05-10T08:12:26;7.18;;;4.00;;
79338;SDS011;68809;41.712;44.768;2023-05-10T08:14:52;8.73;;;3.70;;
79338;SDS011;68809;41.712;44.768;2023-05-10T08:17:18;7.00;;;3.70;;
79338;SDS011;68809;41.712;44.768;2023-05-10T08:19:44;6.82;;;4.18;;
79338;SDS011;68809;41.712;44.768;2023-05-10T08:22:10;7.50;;;4.25;;
79338;SDS011;68809;41.712;44.768;2023-05-10T08:24:37;8.93;;;4.30;;
79338;SDS011;68809;41.712;44.768;2023-05-10T08:27:05;8.70;;;4.47;;
79338;SDS011;68809;41.712;44.768;2023-05-10T08:29:31;8.57;;;4.40;;
79338;SDS011;68809;41.712;44.768;2023-05-10T08:31:57;8.25;;;4.40;;
79338;SDS011;68809;41.712;44.768;2023-05-10T08:34:23;7.20;;;4.20;;
79338;SDS011;68809;41.712;44.768;2023-05-10T08:36:50;7.28;;;4.20;;
79338;SDS011;68809;41.712;44.768;2023-05-10T08:39:16;8.77;;;4.40;;
79338;SDS011;68809;41.712;44.768;2023-05-10T08:41:43;9.80;;;4.47;;
79338;SDS011;68809;41.712;44.768;2023-05-10T08:44:10;8.13;;;3.92;;
79338;SDS011;68809;41.712;44.768;2023-05-10T08:46:36;8.65;;;4.00;;
79338;SDS011;68809;41.712;44.768;2023-05-10T08:49:06;10.60;;;4.70;;
79338;SDS011;68809;41.712;44.768;2023-05-10T08:51:35;10.15;;;4.82;;
79338;SDS011;68809;41.712;44.768;2023-05-10T08:54:03;11.03;;;4.60;;
79338;SDS011;68809;41.712;44.768;2023-05-10T08:56:30;9.35;;;4.50;;
79338;SDS011;68809;41.712;44.768;2023-05-10T08:58:56;8.98;;;4.90;;
79338;SDS011;68809;41.712;44.768;2023-05-10T09:01:22;13.63;;;5.50;;
79338;SDS011;68809;41.712;44.768;2023-05-10T09:03:49;13.70;;;4.70;;
79338;SDS011;68809;41.712;44.768;2023-05-10T09:06:16;8.90;;;4.90;;
79338;SDS011;68809;41.712;44.768;2023-05-10T09:08:43;9.38;;;5.00;;
79338;SDS011;68809;41.712;44.768;2023-05-10T09:11:10;9.10;;;4.93;;
79338;SDS011;68809;41.712;44.768;2023-05-10T09:13:37;7.45;;;4.65;;
79338;SDS011;68809;41.712;44.768;2023-05-10T09:16:03;8.68;;;4.35;;
79338;SDS011;68809;41.712;44.768;2023-05-10T09:18:30;9.13;;;4.87;;
79338;SDS011;68809;41.712;44.768;2023-05-10T09:20:56;9.93;;;4.53;;
79338;SDS011;68809;41.712;44.768;2023-05-10T09:23:22;8.48;;;4.68;;
79338;SDS011;68809;41.712;44.768;2023-05-10T09:26:06;8.32;;;4.60;;
79338;SDS011;68809;41.712;44.768;2023-05-10T09:31:19;9.30;;;4.53;;
79338;SDS011;68809;41.712;44.768;2023-05-10T09:33:46;9.45;;;4.50;;
79338;SDS011;68809;41.712;44.768;2023-05-10T09:36:16;8.45;;;4.35;;
79338;SDS011;68809;41.712;44.768;2023-05-10T09:38:49;9.13;;;4.30;;
79338;SDS011;68809;41.712;44.768;2023-05-10T09:41:18;7.65;;;4.05;;
79338;SDS011;68809;41.712;44.768;2023-05-10T09:43:48;9.20;;;4.70;;
79338;SDS011;68809;41.712;44.768;2023-05-10T09:46:15;7.53;;;4.00;;
79338;SDS011;68809;41.712;44.768;2023-05-10T09:48:42;8.15;;;4.45;;
79338;SDS011;68809;41.712;44.768;2023-05-10T09:51:10;7.25;;;3.90;;
79338;SDS011;68809;41.712;44.768;2023-05-10T09:53:36;7.03;;;4.30;;
79338;SDS011;68809;41.712;44.768;2023-05-10T09:56:02;7.77;;;3.77;;
79338;SDS011;68809;41.712;44.768;2023-05-10T09:58:29;8.02;;;3.85;;
79338;SDS011;68809;41.712;44.768;2023-05-10T10:01:01;8.35;;;4.13;;
79338;SDS011;68809;41.712;44.768;2023-05-10T10:03:27;9.00;;;4.10;;
79338;SDS011;68809;41.712;44.768;2023-05-10T10:05:55;8.02;;;4.10;;
79338;SDS011;68809;41.712;44.768;2023-05-10T10:08:21;7.83;;;3.90;;
79338;SDS011;68809;41.712;44.768;2023-05-10T10:10:48;6.47;;;3.72;;
79338;SDS011;68809;41.712;44.768;2023-05-10T10:13:16;9.48;;;5.13;;
79338;SDS011;68809;41.712;44.768;2023-05-10T10:15:44;7.88;;;3.92;;
79338;SDS011;68809;41.712;44.768;2023-05-10T10:18:13;7.53;;;3.60;;
79338;SDS011;68809;41.712;44.768;2023-05-10T10:20:40;8.73;;;4.30;;
79338;SDS011;68809;41.712;44.768;2023-05-10T10:23:07;8.18;;;4.18;;
79338;SDS011;68809;41.712;44.768;2023-05-10T10:25:34;6.25;;;3.85;;
79338;SDS011;68809;41.712;44.768;2023-05-10T10:31:34;8.57;;;3.83;;
79338;SDS011;68809;41.712;44.768;2023-05-10T10:34:06;8.80;;;3.57;;
79338;SDS011;68809;41.712;44.768;2023-05-10T10:36:39;7.25;;;3.72;;
79338;SDS011;68809;41.712;44.768;2023-05-10T10:39:10;9.70;;;3.70;;
79338;SDS011;68809;41.712;44.768;2023-05-10T10:41:39;8.38;;;3.85;;
79338;SDS011;68809;41.712;44.768;2023-05-10T10:47:21;5.93;;;3.50;;
79338;SDS011;68809;41.712;44.768;2023-05-10T10:52:33;7.13;;;3.55;;
79338;SDS011;68809;41.712;44.768;2023-05-10T10:55:05;8.45;;;3.88;;
79338;SDS011;68809;41.712;44.768;2023-05-10T11:02:53;12.10;;;4.05;;
79338;SDS011;68809;41.712;44.768;2023-05-10T11:10:23;10.68;;;3.92;;
79338;SDS011;68809;41.712;44.768;2023-05-10T11:13:08;8.03;;;3.80;;
79338;SDS011;68809;41.712;44.768;2023-05-10T11:15:36;6.72;;;3.85;;
79338;SDS011;68809;41.712;44.768;2023-05-10T11:20:52;9.75;;;3.88;;
79338;SDS011;68809;41.712;44.768;2023-05-10T11:23:32;7.45;;;3.90;;
79338;SDS011;68809;41.712;44.768;2023-05-10T11:26:13;8.80;;;3.60;;
79338;SDS011;68809;41.712;44.768;2023-05-10T11:28:43;5.97;;;3.38;;
79338;SDS011;68809;41.712;44.768;2023-05-10T11:31:09;8.75;;;3.90;;
79338;SDS011;68809;41.712;44.768;2023-05-10T11:33:42;9.23;;;3.72;;
79338;SDS011;68809;41.712;44.768;2023-05-10T11:36:13;9.52;;;4.10;;
79338;SDS011;68809;41.712;44.768;2023-05-10T11:38:40;6.83;;;3.60;;
79338;SDS011;68809;41.712;44.768;2023-05-10T11:41:10;6.78;;;3.95;;
79338;SDS011;68809;41.712;44.768;2023-05-10T11:43:41;7.90;;;3.65;;
79338;SDS011;68809;41.712;44.768;2023-05-10T11:46:09;6.47;;;3.53;;
79338;SDS011;68809;41.712;44.768;2023-05-10T11:48:40;9.52;;;4.07;;
79338;SDS011;68809;41.712;44.768;2023-05-10T11:51:07;6.37;;;3.57;;
79338;SDS011;68809;41.712;44.768;2023-05-10T11:53:34;6.53;;;3.30;;
79338;SDS011;68809;41.712;44.768;2023-05-10T11:56:04;7.00;;;3.55;;
79338;SDS011;68809;41.712;44.768;2023-05-10T11:58:31;7.18;;;3.58;;
79338;SDS011;68809;41.712;44.768;2023-05-10T12:00:58;10.00;;;3.78;;
79338;SDS011;68809;41.712;44.768;2023-05-10T12:03:26;7.43;;;3.50;;
79338;SDS011;68809;41.712;44.768;2023-05-10T12:05:52;6.07;;;3.30;;
79338;SDS011;68809;41.712;44.768;2023-05-10T12:08:20;5.50;;;3.35;;
79338;SDS011;68809;41.712;44.768;2023-05-10T12:10:48;6.40;;;3.60;;
79338;SDS011;68809;41.712;44.768;2023-05-10T12:13:14;6.70;;;3.35;;
79338;SDS011;68809;41.712;44.768;2023-05-10T12:15:41;8.40;;;3.53;;
79338;SDS011;68809;41.712;44.768;2023-05-10T12:18:11;5.68;;;3.30;;
79338;SDS011;68809;41.712;44.768;2023-05-10T12:20:38;7.05;;;3.55;;
79338;SDS011;68809;41.712;44.768;2023-05-10T12:23:05;7.13;;;3.40;;
79338;SDS011;68809;41.712;44.768;2023-05-10T12:25:35;6.45;;;3.45;;
79338;SDS011;68809;41.712;44.768;2023-05-10T12:28:03;8.33;;;3.60;;
79338;SDS011;68809;41.712;44.768;2023-05-10T12:30:31;5.53;;;3.38;;
79338;SDS011;68809;41.712;44.768;2023-05-10T12:35:31;8.00;;;3.70;;
79338;SDS011;68809;41.712;44.768;2023-05-10T12:37:57;8.40;;;3.80;;
79338;SDS011;68809;41.712;44.768;2023-05-10T12:40:23;5.10;;;3.30;;
79338;SDS011;68809;41.712;44.768;2023-05-10T12:42:50;7.80;;;4.00;;
79338;SDS011;68809;41.712;44.768;2023-05-10T12:45:17;7.75;;;3.65;;
79338;SDS011;68809;41.712;44.768;2023-05-10T12:47:43;6.68;;;3.50;;
79338;SDS011;68809;41.712;44.768;2023-05-10T12:50:09;7.68;;;3.50;;
79338;SDS011;68809;41.712;44.768;2023-05-10T12:52:36;6.60;;;3.50;;
79338;SDS011;68809;41.712;44.768;2023-05-10T12:55:02;7.03;;;3.47;;
79338;SDS011;68809;41.712;44.768;2023-05-10T12:57:30;6.18;;;3.50;;
79338;SDS011;68809;41.712;44.768;2023-05-10T12:59:56;7.05;;;3.90;;
79338;SDS011;68809;41.712;44.768;2023-05-10T13:02:22;7.65;;;3.70;;
79338;SDS011;68809;41.712;44.768;2023-05-10T13:04:49;6.17;;;3.50;;
79338;SDS011;68809;41.712;44.768;2023-05-10T13:07:15;6.72;;;3.85;;
79338;SDS011;68809;41.712;44.768;2023-05-10T13:09:41;6.90;;;3.80;;
79338;SDS011;68809;41.712;44.768;2023-05-10T13:12:08;7.20;;;3.70;;
79338;SDS011;68809;41.712;44.768;2023-05-10T13:14:35;7.95;;;3.92;;
79338;SDS011;68809;41.712;44.768;2023-05-10T13:17:01;7.63;;;3.73;;
79338;SDS011;68809;41.712;44.768;2023-05-10T13:19:27;7.63;;;3.88;;
79338;SDS011;68809;41.712;44.768;2023-05-10T13:21:53;7.88;;;3.80;;
79338;SDS011;68809;41.712;44.768;2023-05-10T13:24:20;10.65;;;5.57;;
79338;SDS011;68809;41.712;44.768;2023-05-10T13:26:46;11.77;;;6.43;;
79338;SDS011;68809;41.712;44.768;2023-05-10T13:29:12;8.23;;;4.30;;
79338;SDS011;68809;41.712;44.768;2023-05-10T13:31:38;7.00;;;3.88;;
79338;SDS011;68809;41.712;44.768;2023-05-10T13:34:05;7.38;;;3.65;;
79338;SDS011;68809;41.712;44.768;2023-05-10T13:36:31;6.78;;;3.72;;
79338;SDS011;68809;41.712;44.768;2023-05-10T13:38:57;6.90;;;3.83;;
79338;SDS011;68809;41.712;44.768;2023-05-10T13:41:23;7.10;;;4.20;;
79338;SDS011;68809;41.712;44.768;2023-05-10T13:43:49;7.90;;;4.13;;
79338;SDS011;68809;41.712;44.768;2023-05-10T13:46:15;8.32;;;3.83;;
79338;SDS011;68809;41.712;44.768;2023-05-10T13:48:42;8.20;;;3.65;;
79338;SDS011;68809;41.712;44.768;2023-05-10T13:51:08;8.00;;;4.00;;
79338;SDS011;68809;41.712;44.768;2023-05-10T13:53:34;8.90;;;3.80;;
79338;SDS011;68809;41.712;44.768;2023-05-10T13:56:01;7.00;;;3.78;;
79338;SDS011;68809;41.712;44.768;2023-05-10T13:58:28;10.43;;;4.00;;
79338;SDS011;68809;41.712;44.768;2023-05-10T14:00:55;7.60;;;3.50;;
79338;SDS011;68809;41.712;44.768;2023-05-10T14:03:21;6.75;;;3.65;;
79338;SDS011;68809;41.712;44.768;2023-05-10T14:05:47;6.57;;;3.87;;
79338;SDS011;68809;41.712;44.768;2023-05-10T14:08:14;5.47;;;3.70;;
79338;SDS011;68809;41.712;44.768;2023-05-10T14:10:40;6.95;;;3.58;;
79338;SDS011;68809;41.712;44.768;2023-05-10T14:13:06;8.55;;;4.10;;
79338;SDS011;68809;41.712;44.768;2023-05-10T14:15:33;7.28;;;3.90;;
79338;SDS011;68809;41.712;44.768;2023-05-10T14:17:59;7.70;;;4.30;;
79338;SDS011;68809;41.712;44.768;2023-05-10T14:20:26;9.40;;;3.80;;
79338;SDS011;68809;41.712;44.768;2023-05-10T14:23:00;10.15;;;3.95;;
79338;SDS011;68809;41.712;44.768;2023-05-10T14:25:28;8.10;;;3.78;;
79338;SDS011;68809;41.712;44.768;2023-05-10T14:27:54;10.32;;;3.88;;
79338;SDS011;68809;41.712;44.768;2023-05-10T14:30:21;7.33;;;4.10;;
79338;SDS011;68809;41.712;44.768;2023-05-10T14:32:47;7.10;;;4.18;;
79338;SDS011;68809;41.712;44.768;2023-05-10T14:35:13;9.32;;;4.10;;
79338;SDS011;68809;41.712;44.768;2023-05-10T14:37:40;8.60;;;4.13;;
79338;SDS011;68809;41.712;44.768;2023-05-10T14:40:06;7.28;;;3.92;;
79338;SDS011;68809;41.712;44.768;2023-05-10T14:42:32;6.83;;;3.63;;
79338;SDS011;68809;41.712;44.768;2023-05-10T14:44:59;8.27;;;3.95;;
79338;SDS011;68809;41.712;44.768;2023-05-10T14:47:25;7.63;;;4.00;;
79338;SDS011;68809;41.712;44.768;2023-05-10T14:49:51;6.38;;;3.60;;
79338;SDS011;68809;41.712;44.768;2023-05-10T14:52:19;6.90;;;3.80;;
79338;SDS011;68809;41.712;44.768;2023-05-10T14:54:45;9.30;;;4.03;;
79338;SDS011;68809;41.712;44.768;2023-05-10T14:57:11;8.10;;;4.03;;
79338;SDS011;68809;41.712;44.768;2023-05-10T14:59:38;7.78;;;4.70;;
79338;SDS011;68809;41.712;44.768;2023-05-10T15:02:04;8.20;;;3.92;;
79338;SDS011;68809;41.712;44.768;2023-05-10T15:04:31;8.27;;;4.05;;
79338;SDS011;68809;41.712;44.768;2023-05-10T15:06:57;6.47;;;3.70;;
79338;SDS011;68809;41.712;44.768;2023-05-10T15:09:25;7.72;;;4.00;;
79338;SDS011;68809;41.712;44.768;2023-05-10T15:11:53;7.13;;;3.60;;
79338;SDS011;68809;41.712;44.768;2023-05-10T15:14:20;6.32;;;3.70;;
79338;SDS011;68809;41.712;44.768;2023-05-10T15:16:46;7.57;;;3.92;;
79338;SDS011;68809;41.712;44.768;2023-05-10T15:19:12;7.40;;;3.77;;